Time;durP1;ratioP1;P1;durP2;ratioP2;P2;SDS_P1;SDS_P2;PMS_P1;PMS_P2;Temp;Humidity;BMP_temperature;BMP_pressure;BME280_temperature;BME280_humidity;BME280_pressure;Samples;Min_cycle;Max_cycle;Signal;HPM_P1;HPM_P2
2021/10/04 00:02:21;;;;;;;35.63;15.38;;;;;;;11.17;59.62;100716.22;5013800;28;20038;-69
2021/10/04 00:04:46;;;;;;;37.58;14.70;;;;;;;11.45;60.32;100761.41;5021894;28;20093;-69
2021/10/04 00:07:11;;;;;;;39.40;14.00;;;;;;;11.48;58.91;100761.13;5020360;28;20045;-69
2021/10/04 00:09:39;;;;;;;35.53;14.32;;;;;;;11.48;59.08;100761.13;5014332;28;20280;-69
2021/10/04 00:12:06;;;;;;;27.52;13.82;;;;;;;11.57;59.43;100759.44;5019120;28;20030;-69
2021/10/04 00:14:31;;;;;;;34.97;14.88;;;;;;;11.75;59.45;100768.31;5018007;28;20029;-69
2021/10/04 00:16:57;;;;;;;36.65;15.73;;;;;;;11.66;59.34;100755.91;5009120;28;20308;-69
2021/10/04 00:19:23;;;;;;;31.83;13.20;;;;;;;11.57;56.30;100768.22;5001661;28;20038;-69
2021/10/04 00:21:49;;;;;;;29.00;13.55;;;;;;;11.50;56.27;100764.47;5002018;28;20046;-69
2021/10/04 00:24:15;;;;;;;31.27;14.30;;;;;;;11.49;57.93;100768.09;5007879;28;20086;-69
2021/10/04 00:26:41;;;;;;;28.65;13.50;;;;;;;11.66;58.54;100772.66;5013068;28;20233;-69
2021/10/04 00:29:06;;;;;;;28.85;13.82;;;;;;;11.60;59.02;100769.75;5012955;28;20041;-69
2021/10/04 00:31:32;;;;;;;26.92;12.15;;;;;;;11.50;60.36;100760.00;5007783;28;20034;-69
2021/10/04 00:33:58;;;;;;;26.30;11.68;;;;;;;11.35;60.67;100753.44;5007589;28;20097;-69
2021/10/04 00:36:23;;;;;;;21.05;9.50;;;;;;;11.66;59.59;100771.84;5001815;28;20035;-69
2021/10/04 00:38:49;;;;;;;24.42;10.15;;;;;;;11.64;58.78;100769.31;5006591;28;20037;-69
2021/10/04 00:41:14;;;;;;;25.75;13.10;;;;;;;10.58;58.11;100779.97;5020927;28;20316;-69
2021/10/04 00:43:40;;;;;;;22.33;12.90;;;;;;;10.12;62.28;100773.38;5021902;28;20189;-69
2021/10/04 00:46:05;;;;;;;32.20;14.40;;;;;;;10.11;59.53;100776.16;5008940;28;20042;-70
2021/10/04 00:48:31;;;;;;;28.95;12.48;;;;;;;9.90;61.12;100774.41;5002235;28;20054;-69
2021/10/04 00:50:56;;;;;;;28.92;12.30;;;;;;;9.77;62.66;100783.50;5004831;28;20045;-69
2021/10/04 00:53:22;;;;;;;25.23;11.80;;;;;;;10.27;60.52;100773.03;5011043;28;20250;-69
2021/10/04 00:55:48;;;;;;;30.92;13.05;;;;;;;10.26;58.93;100758.94;5005288;28;20041;-69
2021/10/04 00:58:13;;;;;;;33.38;12.63;;;;;;;10.29;60.17;100755.19;5001631;28;20040;-69
2021/10/04 01:00:39;;;;;;;21.42;9.57;;;;;;;10.43;62.07;100763.63;5003230;28;20258;-69
2021/10/04 01:03:05;;;;;;;24.42;9.93;;;;;;;10.64;61.38;100763.50;5008471;28;20219;-69
2021/10/04 01:05:31;;;;;;;21.58;10.20;;;;;;;10.60;58.72;100764.75;5014356;28;20223;-69
2021/10/04 01:07:56;;;;;;;26.02;10.20;;;;;;;10.62;58.93;100768.13;5008774;28;20065;-69
2021/10/04 01:10:22;;;;;;;27.48;11.50;;;;;;;10.61;58.15;100762.94;5015235;28;20038;-69
2021/10/04 01:12:50;;;;;;;21.10;10.13;;;;;;;10.64;57.82;100760.88;5014820;28;20076;-69
2021/10/04 01:15:17;;;;;;;20.73;9.15;;;;;;;10.66;58.24;100760.72;5020074;28;20046;-69
2021/10/04 01:17:43;;;;;;;16.40;8.05;;;;;;;10.74;58.51;100755.56;5020450;28;20260;-69
2021/10/04 01:20:11;;;;;;;15.27;7.35;;;;;;;10.60;60.31;100755.97;5010553;28;20141;-69
2021/10/04 01:22:36;;;;;;;18.80;7.15;;;;;;;10.66;60.03;100750.13;4990933;28;20299;-69
2021/10/04 01:25:03;;;;;;;13.25;7.22;;;;;;;10.73;60.68;100760.03;5008042;28;20034;-69
2021/10/04 01:27:28;;;;;;;19.90;7.38;;;;;;;10.66;60.46;100756.28;5007495;28;20076;-69
2021/10/04 01:29:53;;;;;;;15.52;8.20;;;;;;;10.90;60.16;100758.50;5000830;28;20030;-69
2021/10/04 01:32:19;;;;;;;12.73;7.28;;;;;;;10.50;61.00;100711.78;5003106;28;20041;-69
2021/10/04 01:34:46;;;;;;;14.88;7.75;;;;;;;10.77;61.27;100748.19;5018738;28;20272;-69
2021/10/04 01:37:11;;;;;;;14.48;7.68;;;;;;;10.82;61.18;100761.84;5013337;28;20025;-69
2021/10/04 01:39:37;;;;;;;15.55;7.40;;;;;;;10.93;60.65;100752.94;5021176;28;20064;-69
2021/10/04 01:42:02;;;;;;;12.88;7.50;;;;;;;10.82;60.90;100756.56;5021835;28;20034;-69
2021/10/04 01:44:28;;;;;;;16.00;9.73;;;;;;;10.64;61.70;100750.28;5021763;28;20045;-69
2021/10/04 01:46:53;;;;;;;15.60;8.43;;;;;;;10.67;61.50;100752.66;5021758;28;20274;-69
2021/10/04 01:49:19;;;;;;;15.25;7.55;;;;;;;10.67;61.66;100742.06;5021753;28;20248;-69
2021/10/04 01:51:44;;;;;;;19.15;7.97;;;;;;;10.99;60.65;100752.38;5021753;28;20042;-69
2021/10/04 01:54:10;;;;;;;16.92;7.75;;;;;;;11.02;60.65;100753.91;5023634;28;20045;-69
2021/10/04 01:56:35;;;;;;;15.57;7.75;;;;;;;11.02;61.12;100756.56;5025453;28;20038;-69
2021/10/04 01:59:01;;;;;;;15.48;7.63;;;;;;;10.67;61.98;100754.47;5007654;28;20057;-69
2021/10/04 02:01:26;;;;;;;13.65;7.50;;;;;;;10.83;61.50;100754.75;5025364;28;20096;-69
2021/10/04 02:03:54;;;;;;;15.35;7.60;;;;;;;10.84;62.04;100754.59;5025185;28;20121;-69
2021/10/04 02:06:19;;;;;;;10.02;6.60;;;;;;;10.95;60.97;100766.03;5024979;28;20030;-69
2021/10/04 02:08:45;;;;;;;12.57;6.60;;;;;;;11.05;60.02;100767.72;5024794;28;20284;-69
2021/10/04 02:11:11;;;;;;;16.90;7.93;;;;;;;10.88;59.94;100750.69;5024802;28;20227;-69
2021/10/04 02:13:36;;;;;;;13.45;7.60;;;;;;;10.77;61.06;100766.72;5024845;28;20037;-69
2021/10/04 02:16:02;;;;;;;15.93;7.35;;;;;;;10.73;61.48;100762.69;5024714;28;20041;-69
2021/10/04 02:18:27;;;;;;;17.52;8.07;;;;;;;10.77;61.33;100761.44;5024852;28;20347;-69
2021/10/04 02:20:52;;;;;;;18.75;8.60;;;;;;;10.87;60.80;100767.56;5024842;28;20030;-69
2021/10/04 02:23:18;;;;;;;13.45;8.32;;;;;;;10.79;61.23;100772.72;5025057;28;20383;-69
2021/10/04 02:25:46;;;;;;;17.60;9.13;;;;;;;10.81;60.94;100769.94;5011799;28;20034;-69
2021/10/04 02:28:13;;;;;;;17.15;8.98;;;;;;;10.85;61.21;100774.81;5012307;28;20037;-69
2021/10/04 02:30:38;;;;;;;17.60;9.40;;;;;;;10.87;61.20;100775.53;5007152;28;20034;-69
2021/10/04 02:33:05;;;;;;;25.85;10.32;;;;;;;10.66;61.40;100774.81;5004519;28;20022;-69
2021/10/04 02:35:30;;;;;;;20.17;10.20;;;;;;;10.37;62.47;100763.28;5003653;28;20042;-69
2021/10/04 02:37:56;;;;;;;20.10;9.80;;;;;;;10.52;62.10;100776.03;5010840;28;20037;-69
2021/10/04 02:40:22;;;;;;;20.27;10.43;;;;;;;10.74;61.32;100769.66;5016338;28;20033;-69
2021/10/04 02:42:49;;;;;;;21.15;10.18;;;;;;;10.59;62.03;100780.78;5023775;28;20018;-69
2021/10/04 02:45:17;;;;;;;20.05;9.77;;;;;;;10.44;62.06;100775.88;5021237;28;20029;-69
2021/10/04 02:47:45;;;;;;;20.92;9.25;;;;;;;10.75;60.10;100783.75;5012931;28;20103;-69
2021/10/04 02:50:15;;;;;;;16.13;7.45;;;;;;;10.65;58.78;100789.03;5012732;28;20038;-69
2021/10/04 02:52:41;;;;;;;19.23;8.02;;;;;;;10.44;59.17;100791.78;5018936;28;20362;-69
2021/10/04 02:55:07;;;;;;;12.70;7.15;;;;;;;10.05;58.88;100798.69;5012767;28;20042;-69
2021/10/04 02:57:33;;;;;;;10.73;6.30;;;;;;;9.87;60.15;100798.47;5022835;28;20281;-69
2021/10/04 02:59:58;;;;;;;18.63;8.20;;;;;;;9.75;61.22;100788.94;5022845;28;20029;-69
2021/10/04 03:02:26;;;;;;;19.10;8.05;;;;;;;9.80;61.26;100799.13;5010973;28;20030;-69
2021/10/04 03:04:51;;;;;;;11.63;7.32;;;;;;;9.82;61.50;100797.19;5007579;28;20029;-69
2021/10/04 03:07:16;;;;;;;14.35;7.28;;;;;;;10.02;61.24;100795.47;5010815;28;20231;-69
2021/10/04 03:09:42;;;;;;;14.85;6.90;;;;;;;10.15;60.36;100793.44;5012075;28;20033;-69
2021/10/04 03:12:08;;;;;;;15.80;7.30;;;;;;;10.10;60.18;100785.06;5015036;28;20030;-69
2021/10/04 03:14:34;;;;;;;12.93;7.85;;;;;;;10.17;60.59;100791.50;5010272;28;20042;-69
2021/10/04 03:17:00;;;;;;;15.23;7.55;;;;;;;10.27;59.86;100802.16;5008259;28;20037;-69
2021/10/04 03:19:26;;;;;;;13.77;7.28;;;;;;;10.32;58.45;100800.75;5013793;28;20040;-69
2021/10/04 03:21:51;;;;;;;13.15;7.78;;;;;;;10.27;59.36;100802.97;5012434;28;20041;-69
2021/10/04 03:24:17;;;;;;;21.80;7.63;;;;;;;10.27;59.47;100805.63;5015003;28;20026;-69
2021/10/04 03:26:42;;;;;;;14.60;7.15;;;;;;;10.20;57.88;100812.44;5010748;28;20041;-69
2021/10/04 03:29:09;;;;;;;17.83;8.52;;;;;;;10.15;58.13;100804.03;5016826;28;20202;-69
2021/10/04 03:31:35;;;;;;;20.23;8.23;;;;;;;10.03;58.81;100797.16;5015005;28;20425;-69
2021/10/04 03:34:01;;;;;;;18.25;8.95;;;;;;;10.12;59.72;100802.47;5011255;28;20053;-69
2021/10/04 03:36:26;;;;;;;20.15;9.35;;;;;;;10.14;59.66;100800.53;5013458;28;20029;-69
2021/10/04 03:38:53;;;;;;;18.05;10.07;;;;;;;10.10;60.18;100796.47;5022309;28;20033;-69
2021/10/04 03:41:19;;;;;;;22.10;10.45;;;;;;;10.12;60.47;100801.63;5015788;28;20046;-69
2021/10/04 03:43:44;;;;;;;28.23;11.38;;;;;;;10.15;59.88;100804.84;5012787;28;20264;-69
2021/10/04 03:46:10;;;;;;;24.05;11.65;;;;;;;10.13;59.67;100801.50;5013299;28;20041;-69
2021/10/04 03:48:35;;;;;;;22.98;9.85;;;;;;;9.99;59.60;100806.31;5011775;28;20231;-69
2021/10/04 03:51:02;;;;;;;29.75;11.55;;;;;;;9.94;60.55;100804.06;5009764;28;20046;-69
2021/10/04 03:53:27;;;;;;;32.08;10.45;;;;;;;9.84;59.43;100805.81;5008008;28;20026;-69
2021/10/04 03:55:53;;;;;;;23.15;9.70;;;;;;;9.86;59.05;100804.72;5005406;28;20118;-69
2021/10/04 03:58:18;;;;;;;28.20;10.00;;;;;;;9.79;59.42;100814.16;5012430;28;20065;-69
2021/10/04 04:00:44;;;;;;;22.02;9.70;;;;;;;9.83;59.33;100814.72;5019042;28;20135;-69
2021/10/04 04:03:09;;;;;;;28.42;9.98;;;;;;;9.86;59.27;100810.03;5009598;28;20018;-69
2021/10/04 04:05:35;;;;;;;21.35;9.77;;;;;;;9.92;59.02;100811.28;5018618;28;20038;-69
2021/10/04 04:08:00;;;;;;;31.23;10.88;;;;;;;9.96;58.26;100796.00;5015039;28;20248;-69
2021/10/04 04:10:26;;;;;;;21.65;10.48;;;;;;;9.89;59.01;100812.41;5013872;28;20045;-69
2021/10/04 04:12:51;;;;;;;23.10;10.07;;;;;;;9.81;58.70;100803.44;5015598;28;20029;-69
2021/10/04 04:15:17;;;;;;;18.90;9.18;;;;;;;9.81;58.63;100819.31;5012943;28;20060;-69
2021/10/04 04:17:43;;;;;;;23.25;9.60;;;;;;;9.78;58.55;100820.41;5013689;28;20038;-69
2021/10/04 04:20:09;;;;;;;20.02;9.50;;;;;;;9.64;58.25;100826.03;5002146;28;20275;-69
2021/10/04 04:22:34;;;;;;;24.90;9.45;;;;;;;9.56;58.80;100825.84;5004834;28;20049;-69
2021/10/04 04:25:00;;;;;;;24.30;9.63;;;;;;;9.61;59.70;100818.38;4991409;28;20034;-69
2021/10/04 04:27:26;;;;;;;27.33;9.93;;;;;;;9.63;57.72;100816.44;5007763;28;20081;-69
2021/10/04 04:29:52;;;;;;;22.58;8.93;;;;;;;9.52;58.84;100827.91;5005214;28;20033;-69
2021/10/04 04:32:18;;;;;;;26.25;10.30;;;;;;;9.54;58.36;100822.50;5013765;28;20243;-69
2021/10/04 04:34:44;;;;;;;25.48;10.07;;;;;;;9.52;59.01;100832.38;5011320;28;20046;-69
2021/10/04 04:37:09;;;;;;;61.05;15.40;;;;;;;9.58;58.91;100829.19;5008604;28;20313;-69
2021/10/04 04:39:35;;;;;;;39.25;11.27;;;;;;;9.55;58.88;100827.66;5010205;28;20044;-69
2021/10/04 04:42:03;;;;;;;33.22;11.20;;;;;;;9.67;60.19;100825.78;5227934;22;20098;-68
2021/10/04 04:44:28;;;;;;;35.67;13.00;;;;;;;9.57;62.35;100833.66;5040271;28;20052;-68
2021/10/04 04:46:54;;;;;;;46.63;13.23;;;;;;;9.71;62.23;100831.66;5042178;28;20314;-68
2021/10/04 04:49:20;;;;;;;32.40;12.82;;;;;;;9.73;62.54;100827.91;5041933;28;20029;-68
2021/10/04 04:51:45;;;;;;;35.60;14.70;;;;;;;9.98;62.04;100837.22;5041991;28;20350;-68
2021/10/04 04:54:11;;;;;;;38.90;14.70;;;;;;;10.01;61.87;100829.03;5042227;28;20033;-68
2021/10/04 04:56:37;;;;;;;40.55;16.15;;;;;;;10.01;61.99;100834.31;5042050;28;20069;-68
2021/10/04 04:59:02;;;;;;;35.00;12.88;;;;;;;10.22;61.09;100837.78;5042004;28;20080;-68
2021/10/04 05:01:28;;;;;;;26.27;11.35;;;;;;;10.25;60.97;100831.41;5042091;28;20279;-68
2021/10/04 05:03:53;;;;;;;34.28;11.88;;;;;;;10.38;60.30;100839.09;5041739;28;20030;-68
2021/10/04 05:06:19;;;;;;;30.38;13.10;;;;;;;10.41;61.05;100834.41;5041943;28;20101;-68
2021/10/04 05:08:44;;;;;;;31.48;10.95;;;;;;;10.37;61.58;100842.72;5041701;28;20017;-68
2021/10/04 05:11:10;;;;;;;29.77;11.57;;;;;;;10.27;62.00;100845.34;5040906;28;20080;-68
2021/10/04 05:13:35;;;;;;;23.25;10.38;;;;;;;10.63;61.50;100846.59;5041766;28;20091;-68
2021/10/04 05:16:01;;;;;;;31.90;13.48;;;;;;;10.70;60.89;100846.91;5041802;28;20037;-68
2021/10/04 05:18:26;;;;;;;27.02;14.77;;;;;;;10.84;61.14;100839.38;5041838;28;20021;-68
2021/10/04 05:20:52;;;;;;;29.48;17.65;;;;;;;11.11;60.12;100841.38;5041397;28;20033;-69
2021/10/04 05:23:17;;;;;;;32.40;16.88;;;;;;;11.21;60.22;100841.38;5041881;28;20036;-69
2021/10/04 05:25:43;;;;;;;24.77;13.50;;;;;;;11.32;60.10;100849.19;5023816;28;20026;-68
2021/10/04 05:28:08;;;;;;;27.05;10.85;;;;;;;11.44;59.31;100841.94;5042027;28;20081;-68
2021/10/04 05:30:34;;;;;;;18.88;10.65;;;;;;;11.43;59.54;100840.25;5039467;28;20021;-69
2021/10/04 05:33:00;;;;;;;26.75;9.88;;;;;;;11.30;60.11;100835.22;5037041;28;20041;-68
2021/10/04 05:35:26;;;;;;;27.60;9.75;;;;;;;11.32;60.14;100835.94;5044494;28;20021;-68
2021/10/04 05:37:51;;;;;;;23.05;9.90;;;;;;;11.38;60.42;100839.84;5042426;28;20071;-69
2021/10/04 05:40:17;;;;;;;17.40;9.52;;;;;;;11.63;60.00;100838.44;5038603;28;20026;-68
2021/10/04 05:42:43;;;;;;;22.95;9.93;;;;;;;12.26;58.61;100838.72;5020443;28;20068;-69
2021/10/04 05:45:10;;;;;;;18.10;9.45;;;;;;;12.64;57.42;100846.53;5029903;28;20068;-69
2021/10/04 05:47:36;;;;;;;21.90;10.02;;;;;;;12.87;55.99;100841.63;5024723;28;20029;-68
2021/10/04 05:50:03;;;;;;;19.23;8.52;;;;;;;13.15;55.68;100834.41;5024615;28;20077;-69
2021/10/04 05:52:29;;;;;;;14.98;7.47;;;;;;;13.36;55.11;100844.78;5025680;28;20036;-69
2021/10/04 05:54:54;;;;;;;13.18;7.70;;;;;;;13.38;55.23;100840.13;5033037;28;20092;-68
2021/10/04 05:57:20;;;;;;;17.38;7.82;;;;;;;13.57;54.68;100845.31;5028019;28;20163;-69
2021/10/04 05:59:46;;;;;;;22.33;8.30;;;;;;;13.69;54.03;100838.75;5041321;28;20025;-69
2021/10/04 06:02:11;;;;;;;11.35;7.47;;;;;;;13.98;53.03;100841.09;5045009;28;20051;-69
2021/10/04 06:04:37;;;;;;;15.20;7.97;;;;;;;14.22;52.27;100847.56;5045060;28;20342;-69
2021/10/04 06:07:02;;;;;;;13.73;6.82;;;;;;;14.17;52.36;100852.53;5045300;28;20231;-69
2021/10/04 06:09:28;;;;;;;12.27;7.65;;;;;;;13.91;52.61;100850.72;5044521;28;20033;-68
2021/10/04 06:11:53;;;;;;;13.98;8.10;;;;;;;14.19;52.73;100851.38;5044681;28;20049;-69
2021/10/04 06:14:20;;;;;;;19.10;7.68;;;;;;;14.80;51.26;100858.34;5045115;28;20033;-69
2021/10/04 06:16:46;;;;;;;11.32;7.20;;;;;;;15.27;50.18;100855.09;5044557;28;20079;-69
2021/10/04 06:19:11;;;;;;;14.95;7.50;;;;;;;15.45;48.81;100818.41;5045030;28;20056;-69
2021/10/04 06:21:37;;;;;;;15.75;7.30;;;;;;;15.98;48.09;100853.63;5044778;28;20051;-69
2021/10/04 06:24:02;;;;;;;14.50;7.72;;;;;;;16.18;47.64;100863.75;5043744;28;20273;-69
2021/10/04 06:26:28;;;;;;;13.55;8.25;;;;;;;16.33;46.93;100861.22;5044624;28;20342;-69
2021/10/04 06:28:53;;;;;;;16.25;7.32;;;;;;;16.70;46.04;100860.63;5044689;28;20033;-69
2021/10/04 06:31:19;;;;;;;16.30;6.93;;;;;;;16.84;45.71;100859.88;5044715;28;20038;-69
2021/10/04 06:33:44;;;;;;;16.90;6.75;;;;;;;17.04;45.16;100865.59;5044082;28;20025;-68
2021/10/04 06:36:10;;;;;;;14.05;6.60;;;;;;;17.06;45.22;100860.09;5044501;28;20025;-69
2021/10/04 06:38:35;;;;;;;11.05;6.15;;;;;;;17.30;44.51;100861.75;5044425;28;20049;-69
2021/10/04 06:41:00;;;;;;;14.55;6.95;;;;;;;17.52;44.16;100864.44;5043115;28;20033;-69
2021/10/04 06:43:26;;;;;;;20.58;7.13;;;;;;;17.61;43.52;100869.72;5044561;28;20030;-69
2021/10/04 06:45:51;;;;;;;16.35;7.75;;;;;;;17.69;43.83;100865.19;5044243;28;20261;-69
2021/10/04 06:48:17;;;;;;;20.20;7.97;;;;;;;18.10;43.02;100860.25;5044127;28;20325;-69
2021/10/04 06:50:42;;;;;;;17.15;7.07;;;;;;;18.32;42.56;100874.59;5044150;28;20380;-69
2021/10/04 06:53:08;;;;;;;17.90;7.82;;;;;;;18.60;41.88;100871.25;5044262;28;20333;-69
2021/10/04 06:55:33;;;;;;;13.93;7.13;;;;;;;18.58;41.18;100870.59;5043813;28;20076;-69
2021/10/04 06:57:59;;;;;;;15.30;6.88;;;;;;;18.75;41.16;100881.00;5043608;28;20139;-69
2021/10/04 07:00:24;;;;;;;15.32;6.57;;;;;;;18.77;40.54;100860.19;5044368;28;20211;-69
2021/10/04 07:02:53;;;;;;;17.13;6.95;;;;;;;19.05;40.00;100862.97;5043641;28;20041;-69
2021/10/04 07:05:21;;;;;;;14.10;6.30;;;;;;;18.64;41.09;100861.84;5044106;28;20034;-69
2021/10/04 07:07:48;;;;;;;11.32;5.97;;;;;;;18.72;40.33;100867.94;5043719;28;20034;-69
2021/10/04 07:10:15;;;;;;;10.00;6.32;;;;;;;18.75;40.67;100867.59;5044017;28;20052;-69
2021/10/04 07:12:41;;;;;;;13.38;7.30;;;;;;;18.88;40.35;100866.06;5043225;28;20037;-69
2021/10/04 07:15:08;;;;;;;14.15;7.50;;;;;;;18.89;40.44;100857.84;5043911;28;20029;-69
2021/10/04 07:17:35;;;;;;;14.57;7.10;;;;;;;19.16;40.27;100863.50;5043504;28;20215;-69
2021/10/04 07:20:00;;;;;;;10.13;5.65;;;;;;;19.13;40.33;100859.34;5043671;28;20025;-69
2021/10/04 07:22:27;;;;;;;14.57;6.45;;;;;;;19.03;40.74;100864.19;5043650;28;20034;-69
2021/10/04 07:24:52;;;;;;;12.20;7.72;;;;;;;19.51;39.18;100854.53;5043468;28;20037;-69
2021/10/04 07:27:18;;;;;;;35.33;20.58;;;;;;;20.02;38.56;100863.25;5043658;28;20063;-69
2021/10/04 07:29:44;;;;;;;12.70;6.97;;;;;;;20.19;37.97;100868.34;5042715;28;20047;-69
2021/10/04 07:32:09;;;;;;;12.60;5.63;;;;;;;19.92;38.16;100862.78;5042202;28;20040;-69
2021/10/04 07:34:35;;;;;;;18.85;5.80;;;;;;;19.95;38.08;100864.25;5042479;28;20033;-69
2021/10/04 07:37:01;;;;;;;14.48;5.35;;;;;;;19.89;38.16;100868.56;5042766;28;20033;-69
2021/10/04 07:39:27;;;;;;;10.73;5.63;;;;;;;20.05;38.04;100868.25;5042301;28;20045;-69
2021/10/04 07:41:53;;;;;;;13.75;5.45;;;;;;;20.25;37.47;100857.63;5029590;28;20200;-69
2021/10/04 07:44:20;;;;;;;9.80;4.95;;;;;;;20.17;37.25;100863.16;5038476;28;20036;-69
2021/10/04 07:46:53;;;;;;;12.23;5.00;;;;;;;20.15;37.40;100845.56;5037397;28;20326;-69
2021/10/04 07:49:18;;;;;;;12.30;5.32;;;;;;;20.47;36.59;100852.19;5037158;28;20037;-69
2021/10/04 07:51:44;;;;;;;10.70;4.60;;;;;;;20.35;36.47;100846.50;5035443;28;20045;-69
2021/10/04 07:54:10;;;;;;;13.23;5.05;;;;;;;20.53;36.58;100848.69;5036330;28;20068;-69
2021/10/04 07:56:38;;;;;;;14.90;4.78;;;;;;;20.52;36.09;100831.72;5034859;28;20214;-69
2021/10/04 07:59:08;;;;;;;8.43;4.28;;;;;;;20.80;35.85;100836.16;5036604;28;20318;-69
2021/10/04 08:01:34;;;;;;;9.25;4.07;;;;;;;21.23;35.07;100829.47;5035918;28;20044;-69
2021/10/04 08:04:00;;;;;;;14.57;4.72;;;;;;;21.55;34.07;100838.63;5034513;28;20041;-69
2021/10/04 08:06:28;;;;;;;13.90;4.70;;;;;;;21.71;33.90;100834.69;5035865;28;20276;-69
2021/10/04 08:08:54;;;;;;;14.30;4.97;;;;;;;21.61;34.12;100829.72;5036794;28;20053;-69
2021/10/04 08:11:21;;;;;;;15.77;4.72;;;;;;;21.38;34.84;100831.16;5033489;28;20048;-69
2021/10/04 08:13:49;;;;;;;14.40;5.65;;;;;;;21.25;35.74;100805.03;5038208;28;20651;-69
2021/10/04 08:16:16;;;;;;;15.77;5.45;;;;;;;21.64;34.42;100832.00;5035737;28;20033;-69
2021/10/04 08:18:41;;;;;;;15.43;6.05;;;;;;;21.78;35.22;100824.72;5036492;28;20100;-69
2021/10/04 08:21:07;;;;;;;9.85;5.93;;;;;;;21.14;36.62;100794.84;5039250;28;20204;-69
2021/10/04 08:23:32;;;;;;;9.43;6.25;;;;;;;21.14;37.17;100825.28;5035219;28;20041;-69
2021/10/04 08:25:58;;;;;;;12.00;5.85;;;;;;;21.21;37.49;100826.13;5035224;28;20052;-69
2021/10/04 08:28:23;;;;;;;13.82;5.95;;;;;;;21.53;37.55;100824.53;5037282;28;20028;-69
2021/10/04 08:30:49;;;;;;;10.60;5.88;;;;;;;21.78;36.51;100821.19;5033174;28;20033;-69
2021/10/04 08:33:14;;;;;;;12.02;6.38;;;;;;;21.95;36.52;100819.75;5035515;28;20041;-69
2021/10/04 08:35:40;;;;;;;10.40;6.15;;;;;;;21.71;36.83;100820.38;5034857;28;20307;-69
2021/10/04 08:38:06;;;;;;;10.20;5.88;;;;;;;21.65;36.86;100812.09;5033270;28;20088;-69
2021/10/04 08:40:31;;;;;;;10.02;6.45;;;;;;;21.18;38.07;100806.88;5033510;28;20026;-69
2021/10/04 08:42:57;;;;;;;9.38;5.72;;;;;;;20.66;39.51;100809.19;5035930;28;20215;-69
2021/10/04 08:45:29;;;;;;;12.32;6.07;;;;;;;20.44;39.52;100807.66;5036348;28;20040;-69
2021/10/04 08:48:01;;;;;;;17.27;6.30;;;;;;;20.59;39.18;100802.97;5036580;28;20037;-69
2021/10/04 08:50:30;;;;;;;11.75;5.72;;;;;;;20.69;39.09;100791.81;5033601;28;20051;-69
2021/10/04 08:52:57;;;;;;;16.83;5.45;;;;;;;20.62;39.63;100783.72;5035176;28;20041;-69
2021/10/04 08:55:23;;;;;;;10.73;6.07;;;;;;;20.43;39.33;100797.94;5036906;28;20440;-69
2021/10/04 08:57:49;;;;;;;8.35;5.40;;;;;;;20.47;39.60;100791.13;5035889;28;20037;-69
2021/10/04 09:00:14;;;;;;;18.00;5.95;;;;;;;20.38;38.71;100786.91;5034887;28;20037;-69
2021/10/04 09:02:40;;;;;;;9.23;5.85;;;;;;;20.19;38.79;100777.72;5036241;28;20042;-69
2021/10/04 09:05:27;;;;;;;43.63;6.57;;;;;;;20.26;39.07;100789.34;5035005;28;20053;-69
2021/10/04 09:08:16;;;;;;;10.02;5.80;;;;;;;20.32;38.89;100785.88;5036418;28;20331;-69
2021/10/04 09:10:46;;;;;;;10.15;5.03;;;;;;;20.46;38.12;100781.41;5035872;28;20037;-69
2021/10/04 09:13:13;;;;;;;9.43;5.45;;;;;;;20.36;38.47;100757.53;5035000;28;20072;-69
2021/10/04 09:15:50;;;;;;;11.45;5.35;;;;;;;20.57;38.38;100774.59;5034876;28;20036;-69
2021/10/04 09:18:15;;;;;;;8.07;4.90;;;;;;;20.68;37.11;100766.78;5035935;28;20230;-69
2021/10/04 09:20:46;;;;;;;8.82;4.72;;;;;;;20.71;36.66;100768.22;5035537;28;20037;-69
2021/10/04 09:23:48;;;;;;;16.20;5.55;;;;;;;20.84;36.64;100756.69;5036771;28;20040;-69
2021/10/04 09:26:25;;;;;;;18.55;5.47;;;;;;;21.05;36.48;100759.19;5034959;28;20314;-69
2021/10/04 09:28:59;;;;;;;9.77;5.35;;;;;;;20.96;36.68;100749.66;5034774;28;20048;-69
2021/10/04 09:31:27;;;;;;;15.40;5.25;;;;;;;20.85;35.99;100747.59;5034454;28;20045;-69
2021/10/04 09:34:07;;;;;;;12.65;5.72;;;;;;;20.67;36.72;100740.88;5036410;28;20037;-69
2021/10/04 09:36:33;;;;;;;8.60;4.93;;;;;;;20.62;36.11;100742.53;5034852;28;20099;-69
2021/10/04 09:39:18;;;;;;;10.50;4.72;;;;;;;20.90;35.62;100743.25;5036113;28;20435;-69
2021/10/04 09:42:02;;;;;;;;;;;;;;;20.60;34.95;100748.13;5036093;28;20041;-69
2021/10/04 09:44:54;;;;;;;6.53;4.17;;;;;;;20.33;36.55;100740.97;5035999;28;19956;-69
2021/10/04 09:47:22;;;;;;;12.40;5.18;;;;;;;20.30;36.65;100734.13;5035034;28;20041;-70
2021/10/04 09:50:02;;;;;;;8.93;4.75;;;;;;;20.31;36.45;100733.09;5036919;28;20116;-69
2021/10/04 09:52:49;;;;;;;11.52;5.55;;;;;;;20.30;37.37;100731.44;5036614;28;20037;-69
2021/10/04 09:55:52;;;;;;;13.70;5.53;;;;;;;20.36;36.73;100722.56;5036762;28;20045;-69
2021/10/04 09:58:30;;;;;;;11.57;5.28;;;;;;;20.46;35.76;100724.06;4974217;28;20030;-69
2021/10/04 10:01:00;;;;;;;12.10;5.40;;;;;;;20.13;36.88;100715.84;4973732;28;20094;-69
2021/10/04 10:03:30;;;;;;;10.30;5.10;;;;;;;19.97;37.46;100715.16;5010161;28;20033;-70
2021/10/04 10:05:59;;;;;;;14.65;6.22;;;;;;;20.17;38.97;100704.50;5018499;28;20404;-69
2021/10/04 10:08:26;;;;;;;15.75;5.68;;;;;;;20.24;39.01;100707.22;5034926;28;20014;-69
2021/10/04 10:10:54;;;;;;;18.70;6.03;;;;;;;20.40;39.04;100701.50;5033528;28;20262;-69
2021/10/04 10:13:22;;;;;;;7.97;5.20;;;;;;;20.47;39.18;100705.03;5036603;28;20045;-69
2021/10/04 10:16:04;;;;;;;12.00;5.93;;;;;;;20.26;38.97;100695.22;5038556;28;20072;-69
2021/10/04 10:19:02;;;;;;;17.55;6.10;;;;;;;20.16;39.43;100697.47;5038152;28;20052;-69
2021/10/04 10:21:30;;;;;;;10.63;5.72;;;;;;;20.24;39.97;100681.16;5031868;28;20057;-69
2021/10/04 10:24:01;;;;;;;13.65;6.38;;;;;;;20.53;38.91;100688.06;5038230;28;20033;-69
2021/10/04 10:26:26;;;;;;;10.73;5.38;;;;;;;20.49;38.60;100677.94;5037901;28;20033;-69
2021/10/04 10:29:20;;;;;;;9.50;5.70;;;;;;;20.43;38.98;100682.25;5040015;28;20323;-69
2021/10/04 10:31:52;;;;;;;9.38;5.50;;;;;;;20.54;39.18;100668.22;5036855;28;20022;-70
2021/10/04 10:34:29;;;;;;;13.65;5.65;;;;;;;20.68;38.29;100666.38;5036768;28;20032;-69
2021/10/04 10:37:08;;;;;;;11.73;5.68;;;;;;;20.45;38.64;100658.69;5037759;28;20140;-69
2021/10/04 10:39:55;;;;;;;12.48;5.07;;;;;;;20.58;38.36;100658.69;5038680;28;20029;-69
2021/10/04 10:42:23;;;;;;;17.55;5.93;;;;;;;20.45;38.35;100653.28;5034588;28;20053;-69
2021/10/04 10:45:10;;;;;;;9.68;5.32;;;;;;;20.32;38.72;100651.38;5035493;28;20040;-69
2021/10/04 10:47:35;;;;;;;8.25;5.18;;;;;;;20.42;39.01;100650.19;5037809;28;20046;-69
2021/10/04 10:50:05;;;;;;;8.45;5.10;;;;;;;20.26;38.97;100641.44;5039719;28;20029;-69
2021/10/04 10:52:34;;;;;;;9.93;5.00;;;;;;;20.13;39.53;100644.09;5036550;28;20045;-69
2021/10/04 10:55:01;;;;;;;7.00;5.20;;;;;;;20.11;39.68;100638.09;5038931;28;20036;-69
2021/10/04 10:57:48;;;;;;;9.43;5.53;;;;;;;20.35;39.45;100634.84;5035873;28;20234;-69
2021/10/04 11:00:24;;;;;;;16.08;5.45;;;;;;;20.42;39.76;100637.56;5036390;28;20044;-69
2021/10/04 11:02:52;;;;;;;9.63;5.13;;;;;;;20.43;39.50;100639.22;5038307;28;20036;-69
2021/10/04 11:05:40;;;;;;;7.13;4.60;;;;;;;20.40;40.32;100629.69;5039440;28;20079;-69
2021/10/04 11:08:12;;;;;;;12.80;5.57;;;;;;;20.62;39.59;100624.97;5042583;28;20414;-69
2021/10/04 11:10:53;;;;;;;9.30;5.60;;;;;;;20.83;38.52;100618.56;5042462;28;20029;-69
2021/10/04 11:13:34;;;;;;;12.82;5.03;;;;;;;20.57;38.83;100615.84;5042443;28;20033;-69
2021/10/04 11:16:06;;;;;;;11.57;5.18;;;;;;;20.59;39.37;100619.16;5042944;28;20057;-69
2021/10/04 11:18:43;;;;;;;7.80;4.65;;;;;;;20.51;38.98;100620.19;5043949;28;20037;-69
2021/10/04 11:21:12;;;;;;;11.18;5.15;;;;;;;20.58;40.31;100614.81;5042376;28;20331;-69